RKE weather

Copenhagen Roskilde Airport
Copenhagen, Zealand, Denmark

Public forecast

Using degrees Celsius for public forecast. Weather courtesy of forecast.io.

METAR (pilot weather report)

Retrieved 2019/05/24 00:20 UTC (37 minutes ago):

EKRK 240020Z AUTO 19005KT 9999 BKN065/// 11/08 Q1013

TAF (pilot weather forecast)

Forecast is more than 12 hours old.

Closest forecast is Copenhagen Kastrup Airport, 17.9 nm (33.1 km) E. Retrieved 2019/05/23 00:09 UTC (1 day ago):

TAF EKCH 232302Z 2400/2424 20010KT 9999 FEW030 BECMG 2414/2417 28008KT TEMPO 2414/2418 -RA BKN014